Time;durP1;ratioP1;P1;durP2;ratioP2;P2;SDS_P1;SDS_P2;PMS_P1;PMS_P2;Temp;Humidity;BMP_temperature;BMP_pressure;BME280_temperature;BME280_humidity;BME280_pressure;Samples;Min_cycle;Max_cycle;Signal;HPM_P1;HPM_P2
2023/04/07 00:00:21;;;;;;;4.05;3.60;;;;;;;;;;6345521;22;20418;-78
2023/04/07 00:02:47;;;;;;;4.13;3.45;;;;;;;;;;6343841;22;20011;-77
2023/04/07 00:05:14;;;;;;;5.97;3.28;;;;;;;;;;6342418;22;20010;-77
2023/04/07 00:07:40;;;;;;;6.05;3.63;;;;;;;;;;6356405;22;20014;-75
2023/04/07 00:10:07;;;;;;;3.80;3.13;;;;;;;;;;6363237;22;20015;-77
2023/04/07 00:12:33;;;;;;;3.22;2.92;;;;;;;;;;6362634;22;20011;-79
2023/04/07 00:14:59;;;;;;;3.17;2.92;;;;;;;;;;6334253;22;20059;-76
2023/04/07 00:17:25;;;;;;;3.65;3.10;;;;;;;;;;6362418;22;20033;-77
2023/04/07 00:19:51;;;;;;;4.05;3.20;;;;;;;;;;6362102;22;20023;-77
2023/04/07 00:22:17;;;;;;;3.00;2.80;;;;;;;;;;6337403;22;20018;-78
2023/04/07 00:24:44;;;;;;;2.95;2.75;;;;;;;;;;6335777;22;20038;-77
2023/04/07 00:27:10;;;;;;;6.53;2.85;;;;;;;;;;6335924;22;20355;-79
2023/04/07 00:29:36;;;;;;;6.47;2.85;;;;;;;;;;6335876;22;20089;-77
2023/04/07 00:32:02;;;;;;;4.30;2.85;;;;;;;;;;6333783;22;20049;-77
2023/04/07 00:34:28;;;;;;;3.83;2.88;;;;;;;;;;6335979;22;20010;-78
2023/04/07 00:36:55;;;;;;;4.78;2.63;;;;;;;;;;6333859;22;20011;-77
2023/04/07 00:39:21;;;;;;;12.13;3.17;;;;;;;;;;6308345;22;20019;-77
2023/04/07 00:41:47;;;;;;;4.28;3.33;;;;;;;;;;6335481;22;20109;-78
2023/04/07 00:44:13;;;;;;;3.55;3.25;;;;;;;;;;6335848;22;20092;-77
2023/04/07 00:46:39;;;;;;;3.38;3.08;;;;;;;;;;6335738;22;20411;-77
2023/04/07 00:49:06;;;;;;;4.95;2.72;;;;;;;;;;6333843;22;20084;-78
2023/04/07 00:51:32;;;;;;;4.68;3.33;;;;;;;;;;6334957;22;20019;-77
2023/04/07 00:53:58;;;;;;;4.15;2.88;;;;;;;;;;6335280;22;20018;-77
2023/04/07 00:56:24;;;;;;;5.35;2.80;;;;;;;;;;6335385;22;20010;-77
2023/04/07 00:58:50;;;;;;;4.45;3.00;;;;;;;;;;6335235;22;20010;-77
2023/04/07 01:01:36;;;;;;;3.10;2.83;;;;;;;;;;6335384;22;20018;-78
2023/04/07 01:04:03;;;;;;;3.78;2.80;;;;;;;;;;6333575;22;20007;-75
2023/04/07 01:06:30;;;;;;;7.38;3.70;;;;;;;;;;6333826;22;20071;-76
2023/04/07 01:08:57;;;;;;;3.50;3.15;;;;;;;;;;6307777;22;20014;-75
2023/04/07 01:11:50;;;;;;;4.20;3.53;;;;;;;;;;6334703;22;20048;-76
2023/04/07 01:14:19;;;;;;;4.45;2.60;;;;;;;;;;6307878;22;20451;-76
2023/04/07 01:16:52;;;;;;;4.72;3.35;;;;;;;;;;6287125;22;20006;-77
2023/04/07 01:19:38;;;;;;;3.33;3.00;;;;;;;;;;6335611;22;20072;-77
2023/04/07 01:22:09;;;;;;;3.17;2.92;;;;;;;;;;6334911;22;20090;-76
2023/04/07 01:24:54;;;;;;;2.53;2.33;;;;;;;;;;6335667;22;20083;-76
2023/04/07 01:27:40;;;;;;;2.67;2.45;;;;;;;;;;6309807;22;20018;-77
2023/04/07 01:30:07;;;;;;;4.03;2.83;;;;;;;;;;6335386;22;20119;-77
2023/04/07 01:32:34;;;;;;;5.97;2.90;;;;;;;;;;6313228;22;20010;-77
2023/04/07 01:35:00;;;;;;;3.85;2.67;;;;;;;;;;6337089;22;20097;-75
2023/04/07 01:37:26;;;;;;;5.40;3.30;;;;;;;;;;6309719;22;20037;-77
2023/04/07 01:39:53;;;;;;;4.55;2.63;;;;;;;;;;6283938;22;20018;-78
2023/04/07 01:42:19;;;;;;;2.88;2.67;;;;;;;;;;6284260;22;20093;-77
2023/04/07 01:44:45;;;;;;;3.80;2.90;;;;;;;;;;6335085;22;20025;-77
2023/04/07 01:47:11;;;;;;;3.58;2.80;;;;;;;;;;6309624;22;20065;-77
2023/04/07 01:49:38;;;;;;;5.30;2.75;;;;;;;;;;6336608;22;20019;-78
2023/04/07 01:52:04;;;;;;;3.22;2.90;;;;;;;;;;6336734;22;20037;-78
2023/04/07 01:54:30;;;;;;;5.60;3.00;;;;;;;;;;6336646;22;20015;-77
2023/04/07 01:56:56;;;;;;;3.17;2.88;;;;;;;;;;6308862;22;20037;-77
2023/04/07 01:59:22;;;;;;;4.63;2.88;;;;;;;;;;6335088;22;20075;-76
2023/04/07 02:01:49;;;;;;;2.63;2.42;;;;;;;;;;6336624;22;20006;-77
2023/04/07 02:04:20;;;;;;;2.90;2.60;;;;;;;;;;6335422;22;20015;-77
2023/04/07 02:06:49;;;;;;;3.30;3.00;;;;;;;;;;6309179;22;20006;-77
2023/04/07 02:09:18;;;;;;;;;;;;;;;;;;6310413;22;20085;-77
2023/04/07 02:11:44;;;;;;;6.00;3.10;;;;;;;;;;6335228;22;19956;-76
2023/04/07 02:14:10;;;;;;;9.48;3.25;;;;;;;;;;6335175;22;20013;-77
2023/04/07 02:16:55;;;;;;;6.32;3.20;;;;;;;;;;6313134;22;20014;-76
2023/04/07 02:19:21;;;;;;;4.07;2.85;;;;;;;;;;6309367;22;20018;-76
2023/04/07 02:21:47;;;;;;;8.68;3.10;;;;;;;;;;6309482;22;20013;-76
2023/04/07 02:24:18;;;;;;;3.28;3.05;;;;;;;;;;6309206;22;20144;-77
2023/04/07 02:26:44;;;;;;;10.65;2.80;;;;;;;;;;6283526;22;20424;-78
2023/04/07 02:29:10;;;;;;;9.60;3.72;;;;;;;;;;6336202;22;20007;-76
2023/04/07 02:31:37;;;;;;;7.47;3.22;;;;;;;;;;6336225;22;20049;-77
2023/04/07 02:34:03;;;;;;;7.30;3.83;;;;;;;;;;6336052;22;20015;-77
2023/04/07 02:36:30;;;;;;;6.93;3.47;;;;;;;;;;6336274;22;20022;-77
2023/04/07 02:38:56;;;;;;;4.72;3.05;;;;;;;;;;6336091;22;20026;-77
2023/04/07 02:41:22;;;;;;;5.60;2.97;;;;;;;;;;6334485;22;20024;-77
2023/04/07 02:43:47;;;;;;;5.78;3.22;;;;;;;;;;6336503;22;20010;-76
2023/04/07 02:46:15;;;;;;;5.95;3.00;;;;;;;;;;6336169;22;20471;-77
2023/04/07 02:48:41;;;;;;;5.60;3.03;;;;;;;;;;6308827;22;20011;-77
2023/04/07 02:51:09;;;;;;;6.03;2.53;;;;;;;;;;6334394;22;20482;-77
2023/04/07 02:53:35;;;;;;;5.35;3.38;;;;;;;;;;6334952;22;20015;-77
2023/04/07 02:56:02;;;;;;;4.70;3.40;;;;;;;;;;6308140;22;20098;-76
2023/04/07 02:58:28;;;;;;;7.93;3.15;;;;;;;;;;6308724;22;20042;-77
2023/04/07 03:00:54;;;;;;;5.60;3.30;;;;;;;;;;6334095;22;20423;-78
2023/04/07 03:03:24;;;;;;;3.08;2.78;;;;;;;;;;6334925;22;20011;-77
2023/04/07 03:06:02;;;;;;;5.05;2.88;;;;;;;;;;6310841;22;20021;-76
2023/04/07 03:08:29;;;;;;;3.92;3.10;;;;;;;;;;6308535;22;20053;-77
2023/04/07 03:10:55;;;;;;;3.95;3.05;;;;;;;;;;6334196;22;20015;-77
2023/04/07 03:13:28;;;;;;;7.28;3.35;;;;;;;;;;6334613;22;20455;-77
2023/04/07 03:15:54;;;;;;;4.75;3.35;;;;;;;;;;6335196;22;20094;-77
2023/04/07 03:18:21;;;;;;;3.58;3.20;;;;;;;;;;6334559;22;20014;-76
2023/04/07 03:20:47;;;;;;;6.45;3.80;;;;;;;;;;6308650;22;20018;-77
2023/04/07 03:23:15;;;;;;;23.85;4.13;;;;;;;;;;6333893;22;20011;-77
2023/04/07 03:25:41;;;;;;;6.32;4.03;;;;;;;;;;6336098;22;20010;-77
2023/04/07 03:28:09;;;;;;;4.05;2.88;;;;;;;;;;6308775;22;20439;-78
2023/04/07 03:30:38;;;;;;;13.27;4.15;;;;;;;;;;6334391;22;20015;-78
2023/04/07 03:33:04;;;;;;;7.45;3.88;;;;;;;;;;6333775;22;20455;-77
2023/04/07 03:35:30;;;;;;;11.63;3.78;;;;;;;;;;6333975;22;20090;-77
2023/04/07 03:37:57;;;;;;;12.07;4.07;;;;;;;;;;6338741;22;20033;-78
2023/04/07 03:40:24;;;;;;;3.78;3.30;;;;;;;;;;6335068;22;20156;-77
2023/04/07 03:42:50;;;;;;;6.63;3.60;;;;;;;;;;6336477;22;20029;-77
2023/04/07 03:45:16;;;;;;;4.82;3.35;;;;;;;;;;6335677;22;20097;-77
2023/04/07 03:47:48;;;;;;;12.70;3.60;;;;;;;;;;6334335;22;20019;-78
2023/04/07 03:50:15;;;;;;;7.70;3.88;;;;;;;;;;6333533;22;20027;-77
2023/04/07 03:52:59;;;;;;;4.47;3.20;;;;;;;;;;6334029;22;20011;-78
2023/04/07 03:55:28;;;;;;;7.15;4.03;;;;;;;;;;6334404;22;20065;-78
2023/04/07 03:57:59;;;;;;;4.22;3.28;;;;;;;;;;6334404;22;20013;-78
2023/04/07 04:00:32;;;;;;;7.38;3.78;;;;;;;;;;6284444;22;20089;-79
2023/04/07 04:03:05;;;;;;;3.78;3.22;;;;;;;;;;6334152;22;20089;-78
2023/04/07 04:05:34;;;;;;;3.17;2.97;;;;;;;;;;6336127;22;20011;-78
2023/04/07 04:08:00;;;;;;;8.20;3.78;;;;;;;;;;6336014;22;20517;-78
2023/04/07 04:10:27;;;;;;;7.15;3.72;;;;;;;;;;6334706;22;20010;-78
2023/04/07 04:12:54;;;;;;;4.78;3.70;;;;;;;;;;6308743;22;20102;-78
2023/04/07 04:15:21;;;;;;;6.35;3.63;;;;;;;;;;6335076;22;20523;-77
2023/04/07 04:17:48;;;;;;;3.88;3.17;;;;;;;;;;6335000;22;20018;-78
2023/04/07 04:20:15;;;;;;;4.03;3.22;;;;;;;;;;6336773;22;20023;-78
2023/04/07 04:22:44;;;;;;;4.00;3.58;;;;;;;;;;6343290;22;20010;-79
2023/04/07 04:25:11;;;;;;;4.38;3.35;;;;;;;;;;6344524;22;20015;-78
2023/04/07 04:27:39;;;;;;;5.95;3.50;;;;;;;;;;6344901;22;20022;-78
2023/04/07 04:30:14;;;;;;;3.28;2.90;;;;;;;;;;6343955;22;20015;-78
2023/04/07 04:32:53;;;;;;;4.18;3.63;;;;;;;;;;6345051;22;20265;-78
2023/04/07 04:35:26;;;;;;;4.97;3.90;;;;;;;;;;6322541;22;20021;-78
2023/04/07 04:38:15;;;;;;;7.97;3.50;;;;;;;;;;6346503;22;20010;-79
2023/04/07 04:40:46;;;;;;;5.72;3.67;;;;;;;;;;6263252;22;20382;-78
2023/04/07 04:43:13;;;;;;;8.52;3.13;;;;;;;;;;6334474;22;20090;-78
2023/04/07 04:45:40;;;;;;;3.15;2.88;;;;;;;;;;6334373;22;20010;-78
2023/04/07 04:48:10;;;;;;;6.13;3.42;;;;;;;;;;6336009;22;20435;-79
2023/04/07 04:50:36;;;;;;;3.15;2.85;;;;;;;;;;6336043;22;20026;-77
2023/04/07 04:53:07;;;;;;;3.22;2.92;;;;;;;;;;6335245;22;20011;-78
2023/04/07 04:55:34;;;;;;;3.53;2.97;;;;;;;;;;6335903;22;20363;-77
2023/04/07 04:58:00;;;;;;;6.45;3.55;;;;;;;;;;6335740;22;20447;-78
2023/04/07 05:00:40;;;;;;;4.68;3.20;;;;;;;;;;6337165;22;20018;-78
2023/04/07 05:03:07;;;;;;;10.02;3.45;;;;;;;;;;6337161;22;20439;-78
2023/04/07 05:05:37;;;;;;;3.58;2.90;;;;;;;;;;6335584;22;20454;-78
2023/04/07 05:08:04;;;;;;;4.88;3.45;;;;;;;;;;6332356;22;20011;-81
2023/04/07 05:10:37;;;;;;;5.30;3.47;;;;;;;;;;6337545;22;20404;-81
2023/04/07 05:13:03;;;;;;;3.25;2.97;;;;;;;;;;6336411;22;20421;-79
2023/04/07 05:15:31;;;;;;;7.43;3.25;;;;;;;;;;6337398;22;20011;-80
2023/04/07 05:17:58;;;;;;;3.03;2.83;;;;;;;;;;6284176;22;20003;-79
2023/04/07 05:20:27;;;;;;;5.30;2.80;;;;;;;;;;6309070;22;20023;-78
2023/04/07 05:22:54;;;;;;;5.97;2.75;;;;;;;;;;6310609;22;20411;-78
2023/04/07 05:25:24;;;;;;;2.95;2.75;;;;;;;;;;6317269;22;20042;-78
2023/04/07 05:27:57;;;;;;;2.95;2.55;;;;;;;;;;6290394;22;20014;-77
2023/04/07 05:30:23;;;;;;;2.65;2.40;;;;;;;;;;6342220;22;20030;-76
2023/04/07 05:32:49;;;;;;;4.00;3.10;;;;;;;;;;6338013;22;20014;-78
2023/04/07 05:35:34;;;;;;;2.70;2.50;;;;;;;;;;6334600;22;20014;-76
2023/04/07 05:38:00;;;;;;;3.60;2.25;;;;;;;;;;6308859;22;20018;-74
2023/04/07 05:40:27;;;;;;;6.63;2.72;;;;;;;;;;6331854;22;20029;-74
2023/04/07 05:42:55;;;;;;;4.50;2.70;;;;;;;;;;6306117;22;20463;-77
2023/04/07 05:45:21;;;;;;;2.58;2.38;;;;;;;;;;6332724;22;20017;-77
2023/04/07 05:47:49;;;;;;;3.15;2.58;;;;;;;;;;6332701;22;20688;-76
2023/04/07 05:50:19;;;;;;;11.75;2.72;;;;;;;;;;6330875;22;20026;-77
2023/04/07 05:52:47;;;;;;;9.20;2.20;;;;;;;;;;6331464;22;20007;-76
2023/04/07 05:55:21;;;;;;;2.38;2.28;;;;;;;;;;6282934;22;20026;-76
2023/04/07 05:57:48;;;;;;;5.80;2.45;;;;;;;;;;6306281;22;20007;-76
2023/04/07 06:00:18;;;;;;;6.88;2.55;;;;;;;;;;6333071;22;20022;-76
2023/04/07 06:02:49;;;;;;;2.70;2.50;;;;;;;;;;6333138;22;20103;-76
2023/04/07 06:05:18;;;;;;;2.80;2.60;;;;;;;;;;6334296;22;20017;-76
2023/04/07 06:07:45;;;;;;;4.18;2.60;;;;;;;;;;6318177;22;20011;-75
2023/04/07 06:10:12;;;;;;;5.15;2.55;;;;;;;;;;6346837;22;20015;-76
2023/04/07 06:12:39;;;;;;;2.20;2.10;;;;;;;;;;6349121;22;20397;-76
2023/04/07 06:15:06;;;;;;;4.10;2.47;;;;;;;;;;6314160;22;20304;-77
2023/04/07 06:17:32;;;;;;;3.53;2.10;;;;;;;;;;6331593;22;20490;-76
2023/04/07 06:19:57;;;;;;;3.83;2.47;;;;;;;;;;6336093;22;20047;-76
2023/04/07 06:22:23;;;;;;;4.40;2.40;;;;;;;;;;6335864;22;20056;-75
2023/04/07 06:24:49;;;;;;;5.40;2.95;;;;;;;;;;6333841;22;20075;-76
2023/04/07 06:27:17;;;;;;;5.50;3.10;;;;;;;;;;6334867;22;20007;-76
2023/04/07 06:29:46;;;;;;;4.60;2.58;;;;;;;;;;6308248;22;20465;-75
2023/04/07 06:32:12;;;;;;;2.45;2.20;;;;;;;;;;6334408;22;20010;-76
2023/04/07 06:34:38;;;;;;;2.35;2.20;;;;;;;;;;6335305;22;20015;-76
2023/04/07 06:37:05;;;;;;;4.55;2.50;;;;;;;;;;6333195;22;20038;-75
2023/04/07 06:39:32;;;;;;;2.30;2.20;;;;;;;;;;6307625;22;20121;-76
2023/04/07 06:41:58;;;;;;;3.70;2.10;;;;;;;;;;6335791;22;20006;-77
2023/04/07 06:44:24;;;;;;;6.25;2.40;;;;;;;;;;6333390;22;20067;-75
2023/04/07 06:46:52;;;;;;;5.22;2.13;;;;;;;;;;6336445;22;20007;-75
2023/04/07 06:49:18;;;;;;;3.55;2.50;;;;;;;;;;6335377;22;20471;-76
2023/04/07 06:51:45;;;;;;;3.10;2.25;;;;;;;;;;6341780;22;20014;-76
2023/04/07 06:54:12;;;;;;;9.23;2.67;;;;;;;;;;6358464;22;20026;-77
2023/04/07 06:56:39;;;;;;;11.52;2.72;;;;;;;;;;6359539;22;20011;-76
2023/04/07 06:59:04;;;;;;;2.22;2.03;;;;;;;;;;6360697;22;20022;-76
2023/04/07 07:01:30;;;;;;;2.28;2.13;;;;;;;;;;6356191;22;20019;-76
2023/04/07 07:03:56;;;;;;;2.60;2.28;;;;;;;;;;6285755;22;20022;-76
2023/04/07 07:06:22;;;;;;;2.85;2.08;;;;;;;;;;6309394;22;20021;-76
2023/04/07 07:08:48;;;;;;;3.38;2.63;;;;;;;;;;6336325;22;20355;-76
2023/04/07 07:11:14;;;;;;;7.40;1.80;;;;;;;;;;6335014;22;20014;-76
2023/04/07 07:13:40;;;;;;;6.45;2.78;;;;;;;;;;6334591;22;20363;-76
2023/04/07 07:16:06;;;;;;;2.00;1.90;;;;;;;;;;6334755;22;20062;-77
2023/04/07 07:18:32;;;;;;;11.52;2.25;;;;;;;;;;6334249;22;20014;-77
2023/04/07 07:20:58;;;;;;;9.68;2.42;;;;;;;;;;6335114;22;20443;-77
2023/04/07 07:23:24;;;;;;;2.55;1.65;;;;;;;;;;6333595;22;20014;-76
2023/04/07 07:25:50;;;;;;;1.90;1.80;;;;;;;;;;6333912;22;20045;-76
2023/04/07 07:28:17;;;;;;;3.83;1.95;;;;;;;;;;6307363;22;20110;-76
2023/04/07 07:30:43;;;;;;;2.92;1.95;;;;;;;;;;6333392;22;20014;-76
2023/04/07 07:33:09;;;;;;;1.80;1.70;;;;;;;;;;6334697;22;20010;-78
2023/04/07 07:35:36;;;;;;;3.35;2.03;;;;;;;;;;6334074;22;20064;-78
2023/04/07 07:38:03;;;;;;;2.25;1.90;;;;;;;;;;6307659;22;20017;-77
2023/04/07 07:40:29;;;;;;;2.50;2.22;;;;;;;;;;6333451;22;20023;-77
2023/04/07 07:42:55;;;;;;;4.93;2.20;;;;;;;;;;6332229;22;20011;-76
2023/04/07 07:45:21;;;;;;;4.82;2.15;;;;;;;;;;6333329;22;20011;-79
2023/04/07 07:47:47;;;;;;;2.70;2.00;;;;;;;;;;6334322;22;20401;-77
2023/04/07 07:50:13;;;;;;;8.90;2.45;;;;;;;;;;6335331;22;20030;-78
2023/04/07 07:52:40;;;;;;;2.05;1.80;;;;;;;;;;6334324;22;20064;-77
2023/04/07 07:55:06;;;;;;;6.57;2.30;;;;;;;;;;6335498;22;20017;-76
2023/04/07 07:57:32;;;;;;;1.80;1.70;;;;;;;;;;6335975;22;20011;-77
2023/04/07 07:59:58;;;;;;;8.32;2.05;;;;;;;;;;6308071;22;20099;-77
2023/04/07 08:02:30;;;;;;;5.30;2.00;;;;;;;;;;6330275;22;20017;-76
2023/04/07 08:04:56;;;;;;;3.22;2.08;;;;;;;;;;6333603;22;20458;-77
2023/04/07 08:07:22;;;;;;;6.15;1.85;;;;;;;;;;6350306;22;20015;-75
2023/04/07 08:09:48;;;;;;;3.70;1.95;;;;;;;;;;6356924;22;20011;-74
2023/04/07 08:12:15;;;;;;;1.77;1.50;;;;;;;;;;6358354;22;19995;-76
2023/04/07 08:14:41;;;;;;;9.45;1.90;;;;;;;;;;6359676;22;20040;-76
2023/04/07 08:17:07;;;;;;;2.05;1.50;;;;;;;;;;6358632;22;20003;-75
2023/04/07 08:19:33;;;;;;;13.05;2.15;;;;;;;;;;6353586;22;20044;-75
2023/04/07 08:21:59;;;;;;;3.65;1.70;;;;;;;;;;6333432;22;20089;-74
2023/04/07 08:24:27;;;;;;;1.50;1.50;;;;;;;;;;6334617;22;20042;-76
2023/04/07 08:26:53;;;;;;;7.90;1.73;;;;;;;;;;6334236;22;20447;-75
2023/04/07 08:29:19;;;;;;;4.63;1.85;;;;;;;;;;6333661;22;20011;-76
2023/04/07 08:31:45;;;;;;;9.10;1.90;;;;;;;;;;6332875;22;20044;-74
2023/04/07 08:34:12;;;;;;;1.52;1.42;;;;;;;;;;6334558;22;20014;-75
2023/04/07 08:36:38;;;;;;;6.88;1.63;;;;;;;;;;6334824;22;20017;-76
2023/04/07 08:39:05;;;;;;;55.33;4.88;;;;;;;;;;6334362;22;20019;-77
2023/04/07 08:41:38;;;;;;;4.38;1.58;;;;;;;;;;6333777;22;20019;-72
2023/04/07 08:44:05;;;;;;;6.35;1.83;;;;;;;;;;6333591;22;20018;-74
2023/04/07 08:46:31;;;;;;;4.78;2.03;;;;;;;;;;6334033;22;20463;-73
2023/04/07 08:48:57;;;;;;;1.90;1.80;;;;;;;;;;6333011;22;20094;-76
2023/04/07 08:51:32;;;;;;;11.48;1.88;;;;;;;;;;6306175;22;20546;-75
2023/04/07 08:54:08;;;;;;;10.05;2.13;;;;;;;;;;6332535;22;20010;-75
2023/04/07 08:56:34;;;;;;;7.93;2.03;;;;;;;;;;6333664;22;20045;-74
2023/04/07 08:59:01;;;;;;;5.18;1.48;;;;;;;;;;6331983;22;20450;-74
2023/04/07 09:01:27;;;;;;;2.35;1.30;;;;;;;;;;6333877;22;20027;-75
2023/04/07 09:03:53;;;;;;;1.83;1.55;;;;;;;;;;6334161;22;20014;-75
2023/04/07 09:06:19;;;;;;;1.58;1.48;;;;;;;;;;6334187;22;20018;-76
2023/04/07 09:08:45;;;;;;;1.73;1.38;;;;;;;;;;6333844;22;20007;-75
2023/04/07 09:11:11;;;;;;;3.15;1.80;;;;;;;;;;6334001;22;20098;-75
2023/04/07 09:13:37;;;;;;;1.50;1.50;;;;;;;;;;6332433;22;20065;-75
2023/04/07 09:16:03;;;;;;;2.38;1.77;;;;;;;;;;6334291;22;20015;-75
2023/04/07 09:18:29;;;;;;;5.93;1.85;;;;;;;;;;6306464;22;20045;-74
2023/04/07 09:21:00;;;;;;;2.35;1.67;;;;;;;;;;6334018;22;20018;-75
2023/04/07 09:23:35;;;;;;;1.38;1.38;;;;;;;;;;6333765;22;20017;-74
2023/04/07 09:26:16;;;;;;;1.38;1.38;;;;;;;;;;6331571;22;20056;-76
2023/04/07 09:28:45;;;;;;;4.93;1.52;;;;;;;;;;6333674;22;20418;-75
2023/04/07 09:31:11;;;;;;;2.03;1.70;;;;;;;;;;6328423;22;20022;-75
2023/04/07 09:33:37;;;;;;;1.98;1.67;;;;;;;;;;6332181;22;20094;-75
2023/04/07 09:36:05;;;;;;;1.80;1.70;;;;;;;;;;6332445;22;20021;-75
2023/04/07 09:38:35;;;;;;;1.40;1.40;;;;;;;;;;6330848;22;20006;-75
2023/04/07 09:41:05;;;;;;;2.27;1.80;;;;;;;;;;6331947;22;20018;-75
2023/04/07 09:43:31;;;;;;;1.30;1.30;;;;;;;;;;6332234;22;20648;-75
2023/04/07 09:46:10;;;;;;;1.90;1.60;;;;;;;;;;6333149;22;20018;-75
2023/04/07 09:48:37;;;;;;;1.40;1.30;;;;;;;;;;6306501;22;20472;-75
2023/04/07 09:51:06;;;;;;;3.08;1.63;;;;;;;;;;6336388;22;20082;-76
2023/04/07 09:53:42;;;;;;;2.00;1.90;;;;;;;;;;6310086;22;20007;-75
2023/04/07 09:56:11;;;;;;;8.73;1.70;;;;;;;;;;6338679;22;20017;-75
2023/04/07 09:58:38;;;;;;;3.13;1.67;;;;;;;;;;6336919;22;20011;-75
2023/04/07 10:01:07;;;;;;;3.92;1.90;;;;;;;;;;6336756;22;20026;-76
2023/04/07 10:03:33;;;;;;;2.45;1.88;;;;;;;;;;6335525;22;20050;-75
2023/04/07 10:06:02;;;;;;;1.83;1.63;;;;;;;;;;6336528;22;20095;-79
2023/04/07 10:08:29;;;;;;;2.65;1.88;;;;;;;;;;6334961;22;20064;-75
2023/04/07 10:10:56;;;;;;;1.92;1.73;;;;;;;;;;6335511;22;20417;-76
2023/04/07 10:13:23;;;;;;;2.85;2.15;;;;;;;;;;6309287;22;20018;-75
2023/04/07 10:15:49;;;;;;;4.18;2.38;;;;;;;;;;6309874;22;20106;-75
2023/04/07 10:18:14;;;;;;;3.55;1.60;;;;;;;;;;6337673;22;20412;-75
2023/04/07 10:20:41;;;;;;;2.88;2.10;;;;;;;;;;6338035;22;20281;-76
2023/04/07 10:23:11;;;;;;;1.85;1.75;;;;;;;;;;6346172;22;20510;-76
2023/04/07 10:25:37;;;;;;;2.58;2.35;;;;;;;;;;6326083;22;20034;-75
2023/04/07 10:28:03;;;;;;;3.60;2.25;;;;;;;;;;6352820;22;20083;-75
2023/04/07 10:30:30;;;;;;;2.85;2.40;;;;;;;;;;6309745;22;20073;-75
2023/04/07 10:32:57;;;;;;;2.95;2.10;;;;;;;;;;6336250;22;20470;-76
2023/04/07 10:35:23;;;;;;;1.23;1.23;;;;;;;;;;6334499;22;20474;-75
2023/04/07 10:38:12;;;;;;;1.92;1.83;;;;;;;;;;6336725;22;20014;-76
2023/04/07 10:40:38;;;;;;;1.80;1.70;;;;;;;;;;6335240;22;20029;-75
2023/04/07 10:43:08;;;;;;;1.85;1.75;;;;;;;;;;6340114;22;20011;-76
2023/04/07 10:45:54;;;;;;;1.98;1.88;;;;;;;;;;6336287;22;20038;-75
2023/04/07 10:48:21;;;;;;;4.65;4.25;;;;;;;;;;6308532;22;20038;-75
2023/04/07 10:51:09;;;;;;;4.32;3.22;;;;;;;;;;6336100;22;20050;-75
2023/04/07 10:53:37;;;;;;;2.72;2.00;;;;;;;;;;6335937;22;20556;-75
2023/04/07 10:56:03;;;;;;;7.25;2.22;;;;;;;;;;6336181;22;20006;-75
2023/04/07 10:58:29;;;;;;;3.13;2.22;;;;;;;;;;6334623;22;20011;-75
2023/04/07 11:00:59;;;;;;;3.58;2.30;;;;;;;;;;6335805;22;20019;-75
2023/04/07 11:03:26;;;;;;;2.00;1.90;;;;;;;;;;6334130;22;20002;-75
2023/04/07 11:05:52;;;;;;;2.92;2.70;;;;;;;;;;6334376;22;20034;-76
2023/04/07 11:08:34;;;;;;;2.45;2.30;;;;;;;;;;6334115;22;20006;-75
2023/04/07 11:10:59;;;;;;;2.60;1.70;;;;;;;;;;6334468;22;20019;-75
2023/04/07 11:13:26;;;;;;;2.88;2.08;;;;;;;;;;6335795;22;20011;-75
2023/04/07 11:15:52;;;;;;;1.92;1.83;;;;;;;;;;6334447;22;20016;-75
2023/04/07 11:18:22;;;;;;;1.73;1.63;;;;;;;;;;6335715;22;20419;-75
2023/04/07 11:20:52;;;;;;;1.80;1.70;;;;;;;;;;6336328;22;20042;-75
2023/04/07 11:23:19;;;;;;;1.35;1.30;;;;;;;;;;6335858;22;20007;-75
2023/04/07 11:25:46;;;;;;;4.13;1.85;;;;;;;;;;6334733;22;20018;-75
2023/04/07 11:28:12;;;;;;;8.52;1.80;;;;;;;;;;6336382;22;20450;-74
2023/04/07 11:30:38;;;;;;;3.20;2.10;;;;;;;;;;6336320;22;20040;-74
2023/04/07 11:33:04;;;;;;;1.65;1.55;;;;;;;;;;6335986;22;20009;-74
2023/04/07 11:35:30;;;;;;;4.18;2.50;;;;;;;;;;6334539;22;20015;-75
2023/04/07 11:37:57;;;;;;;4.03;2.22;;;;;;;;;;6333918;22;20010;-75
2023/04/07 11:40:35;;;;;;;4.00;1.80;;;;;;;;;;6335520;22;20084;-74
2023/04/07 11:43:02;;;;;;;2.90;1.70;;;;;;;;;;6335795;22;20021;-75
2023/04/07 11:45:28;;;;;;;2.03;1.90;;;;;;;;;;6335680;22;20466;-75
2023/04/07 11:47:53;;;;;;;1.65;1.27;;;;;;;;;;6334346;22;20030;-75
2023/04/07 11:50:39;;;;;;;2.42;2.03;;;;;;;;;;6307854;22;20023;-75
2023/04/07 11:53:06;;;;;;;2.33;1.73;;;;;;;;;;6334375;22;20462;-76
2023/04/07 11:55:31;;;;;;;1.70;1.60;;;;;;;;;;6333862;22;20007;-76
2023/04/07 11:58:04;;;;;;;2.38;1.92;;;;;;;;;;6334249;22;20022;-75
2023/04/07 12:00:30;;;;;;;1.80;1.70;;;;;;;;;;6336858;22;20027;-76
2023/04/07 12:03:08;;;;;;;4.18;1.80;;;;;;;;;;6335168;22;20017;-75
2023/04/07 12:05:43;;;;;;;5.07;2.05;;;;;;;;;;6335429;22;20021;-75
2023/04/07 12:08:09;;;;;;;1.98;1.80;;;;;;;;;;6335741;22;20018;-76
2023/04/07 12:10:39;;;;;;;2.63;1.85;;;;;;;;;;6334211;22;20022;-76
2023/04/07 12:13:06;;;;;;;1.67;1.52;;;;;;;;;;6335610;22;20010;-75
2023/04/07 12:15:32;;;;;;;1.15;1.15;;;;;;;;;;6335596;22;20042;-76
2023/04/07 12:17:59;;;;;;;4.68;1.90;;;;;;;;;;6335171;22;20002;-75
2023/04/07 12:20:26;;;;;;;1.80;1.70;;;;;;;;;;6335269;22;20044;-75
2023/04/07 12:22:52;;;;;;;1.83;1.73;;;;;;;;;;6335578;22;20014;-75
2023/04/07 12:25:19;;;;;;;4.50;1.70;;;;;;;;;;6335303;22;20015;-75
2023/04/07 12:27:45;;;;;;;8.73;2.63;;;;;;;;;;6335500;22;20021;-74
2023/04/07 12:30:12;;;;;;;1.88;1.70;;;;;;;;;;6335586;22;20115;-75
2023/04/07 12:32:38;;;;;;;1.92;1.83;;;;;;;;;;6334612;22;20113;-75
2023/04/07 12:35:07;;;;;;;2.40;1.95;;;;;;;;;;6335565;22;20423;-74
2023/04/07 12:37:33;;;;;;;3.42;2.40;;;;;;;;;;6333526;22;20401;-75
2023/04/07 12:39:59;;;;;;;2.35;1.60;;;;;;;;;;6335574;22;20030;-75
2023/04/07 12:42:26;;;;;;;1.52;1.45;;;;;;;;;;6333624;22;20079;-74
2023/04/07 12:44:51;;;;;;;1.85;1.65;;;;;;;;;;6333933;22;20019;-75
2023/04/07 12:47:17;;;;;;;3.08;1.60;;;;;;;;;;6335039;22;20007;-76
2023/04/07 12:49:44;;;;;;;2.25;1.70;;;;;;;;;;6335323;22;20491;-75
2023/04/07 12:52:10;;;;;;;1.77;1.67;;;;;;;;;;6333739;22;20097;-75
2023/04/07 12:54:37;;;;;;;3.50;2.30;;;;;;;;;;6335113;22;20014;-75
2023/04/07 12:57:03;;;;;;;2.10;2.00;;;;;;;;;;6335290;22;20485;-75
2023/04/07 12:59:30;;;;;;;10.65;2.25;;;;;;;;;;6335074;22;20090;-75
2023/04/07 13:01:56;;;;;;;3.13;2.00;;;;;;;;;;6335362;22;20022;-76
2023/04/07 13:04:23;;;;;;;4.68;2.22;;;;;;;;;;6333297;22;20010;-75
2023/04/07 13:06:49;;;;;;;7.85;2.20;;;;;;;;;;6334527;22;20011;-76
2023/04/07 13:09:14;;;;;;;1.98;1.88;;;;;;;;;;6335513;22;20086;-75
2023/04/07 13:11:41;;;;;;;2.90;2.20;;;;;;;;;;6337016;22;20010;-75
2023/04/07 13:14:07;;;;;;;1.95;1.58;;;;;;;;;;6336252;22;20010;-75
2023/04/07 13:16:33;;;;;;;3.63;2.05;;;;;;;;;;6337164;22;20010;-75
2023/04/07 13:18:59;;;;;;;3.88;2.42;;;;;;;;;;6337429;22;20011;-76
2023/04/07 13:21:26;;;;;;;4.82;2.35;;;;;;;;;;6336815;22;20042;-76
2023/04/07 13:23:52;;;;;;;4.72;2.67;;;;;;;;;;6335183;22;20011;-77
2023/04/07 13:26:19;;;;;;;4.72;1.98;;;;;;;;;;6336451;22;20094;-76
2023/04/07 13:28:46;;;;;;;3.67;2.90;;;;;;;;;;6336888;22;20403;-75
2023/04/07 13:31:15;;;;;;;2.30;2.10;;;;;;;;;;6334617;22;20451;-75
2023/04/07 13:33:41;;;;;;;1.85;1.75;;;;;;;;;;6334632;22;20093;-76
2023/04/07 13:36:08;;;;;;;2.20;2.05;;;;;;;;;;6308163;22;20014;-75
2023/04/07 13:38:34;;;;;;;2.17;2.00;;;;;;;;;;6333691;22;20021;-76
2023/04/07 13:40:59;;;;;;;3.88;1.80;;;;;;;;;;6335370;22;20445;-76
2023/04/07 13:43:26;;;;;;;4.72;2.50;;;;;;;;;;6333563;22;20094;-74
2023/04/07 13:45:52;;;;;;;2.95;2.63;;;;;;;;;;6333432;22;20042;-75
2023/04/07 13:48:18;;;;;;;2.38;2.17;;;;;;;;;;6334516;22;20007;-75
2023/04/07 13:50:44;;;;;;;2.42;2.22;;;;;;;;;;6335332;22;20061;-75
2023/04/07 13:53:10;;;;;;;2.30;2.00;;;;;;;;;;6336812;22;20007;-75
2023/04/07 13:55:36;;;;;;;8.43;2.30;;;;;;;;;;6335793;22;20010;-76
2023/04/07 13:58:02;;;;;;;2.30;2.20;;;;;;;;;;6334848;22;20137;-75
2023/04/07 14:00:28;;;;;;;2.30;2.10;;;;;;;;;;6336639;22;20019;-76
2023/04/07 14:02:55;;;;;;;2.17;1.50;;;;;;;;;;6330814;22;20007;-76
2023/04/07 14:05:21;;;;;;;2.00;1.90;;;;;;;;;;6336285;22;20018;-77
2023/04/07 14:07:48;;;;;;;2.50;2.00;;;;;;;;;;6340421;22;20013;-75
2023/04/07 14:10:14;;;;;;;4.82;2.25;;;;;;;;;;6339930;22;20064;-75
2023/04/07 14:12:41;;;;;;;2.92;2.22;;;;;;;;;;6314666;22;20370;-75
2023/04/07 14:15:07;;;;;;;3.65;1.95;;;;;;;;;;6336360;22;20382;-75
2023/04/07 14:17:33;;;;;;;2.75;2.10;;;;;;;;;;6331891;22;20011;-77
2023/04/07 14:19:59;;;;;;;4.88;2.20;;;;;;;;;;6333795;22;20019;-75
2023/04/07 14:22:29;;;;;;;2.50;1.98;;;;;;;;;;6332302;22;20006;-75
2023/04/07 14:24:55;;;;;;;3.33;2.60;;;;;;;;;;6331679;22;20022;-76
2023/04/07 14:27:22;;;;;;;2.95;2.72;;;;;;;;;;6333368;22;20007;-75
2023/04/07 14:29:47;;;;;;;6.35;3.03;;;;;;;;;;6334218;22;20481;-75
2023/04/07 14:32:14;;;;;;;3.83;2.47;;;;;;;;;;6333289;22;20007;-75
2023/04/07 14:34:43;;;;;;;5.28;3.50;;;;;;;;;;6305735;22;20025;-75
2023/04/07 14:37:09;;;;;;;4.70;2.75;;;;;;;;;;6332871;22;20457;-75
2023/04/07 14:39:38;;;;;;;2.10;2.00;;;;;;;;;;6329775;22;20174;-77
2023/04/07 14:42:04;;;;;;;3.05;1.85;;;;;;;;;;6306808;22;20397;-76
2023/04/07 14:44:33;;;;;;;4.57;1.88;;;;;;;;;;6333238;22;20011;-75
2023/04/07 14:46:59;;;;;;;4.90;2.67;;;;;;;;;;6330902;22;20010;-75